Time;durP1;ratioP1;P1;durP2;ratioP2;P2;SDS_P1;SDS_P2;PMS_P1;PMS_P2;Temp;Humidity;BMP_temperature;BMP_pressure;BME280_temperature;BME280_humidity;BME280_pressure;Samples;Min_cycle;Max_cycle;Signal;HPM_P1;HPM_P2
2022/01/23 00:00:33;;;;;;;8.37;5.90;;;;;;;2.94;100.00;98319.50;5036649;28;20200;-65
2022/01/23 00:03:05;;;;;;;9.43;6.10;;;;;;;2.87;100.00;98313.22;5054371;28;20178;-64
2022/01/23 00:05:34;;;;;;;7.60;5.73;;;;;;;2.97;100.00;98319.19;5070173;28;20193;-65
2022/01/23 00:08:00;;;;;;;12.00;6.47;;;;;;;3.07;100.00;98313.97;5074793;28;20173;-65
2022/01/23 00:10:26;;;;;;;7.87;5.93;;;;;;;2.88;100.00;98310.50;5066635;28;20259;-65
2022/01/23 00:12:56;;;;;;;9.27;6.10;;;;;;;2.95;100.00;98302.19;5064676;28;20246;-64
2022/01/23 00:18:05;;;;;;;8.73;6.33;;;;;;;3.09;100.00;98312.06;5059306;28;20710;-65
2022/01/23 00:20:31;;;;;;;6.67;5.80;;;;;;;3.08;100.00;98311.25;5073906;28;20268;-65
2022/01/23 00:23:00;;;;;;;10.63;6.83;;;;;;;3.16;100.00;98305.38;5044935;28;20243;-64
2022/01/23 00:30:57;;;;;;;8.67;6.40;;;;;;;2.96;100.00;98307.19;5053774;28;20638;-65
2022/01/23 00:33:23;;;;;;;8.37;5.50;;;;;;;3.04;100.00;98303.91;5054133;28;20205;-65
2022/01/23 00:35:50;;;;;;;10.27;6.57;;;;;;;2.95;100.00;98304.78;5072302;28;20622;-65
2022/01/23 00:38:16;;;;;;;9.83;6.60;;;;;;;2.94;100.00;98306.53;5073430;28;20192;-65
2022/01/23 00:40:45;;;;;;;9.97;5.90;;;;;;;2.92;100.00;98311.84;5064353;28;20240;-65
2022/01/23 00:43:27;;;;;;;7.83;6.23;;;;;;;2.93;100.00;98312.69;5054076;28;20201;-65
2022/01/23 00:46:08;;;;;;;8.50;6.23;;;;;;;2.97;100.00;98302.84;5058988;28;20185;-66
2022/01/23 00:48:36;;;;;;;10.27;7.43;;;;;;;3.07;100.00;98301.03;5069300;28;20173;-65
2022/01/23 00:51:01;;;;;;;12.60;7.57;;;;;;;3.16;100.00;98301.00;5053741;28;20208;-64
2022/01/23 00:53:27;;;;;;;11.60;7.77;;;;;;;3.05;100.00;98300.38;5060234;28;20181;-65
2022/01/23 00:55:52;;;;;;;12.73;7.83;;;;;;;3.13;100.00;98301.28;5072712;28;20216;-65
2022/01/23 00:58:18;;;;;;;13.80;7.83;;;;;;;3.17;100.00;98299.25;5073108;28;20177;-65
2022/01/23 01:00:44;;;;;;;9.90;7.33;;;;;;;3.09;100.00;98299.94;5072164;28;20254;-64
2022/01/23 01:03:09;;;;;;;12.23;7.83;;;;;;;2.97;100.00;98298.47;5054548;28;20178;-65
2022/01/23 01:05:35;;;;;;;11.23;7.30;;;;;;;2.98;100.00;98302.69;5053531;28;20307;-65
2022/01/23 01:08:03;;;;;;;13.07;8.10;;;;;;;3.04;100.00;98311.69;5063282;28;20208;-65
2022/01/23 01:10:39;;;;;;;10.93;7.83;;;;;;;3.06;100.00;98304.59;5072348;28;20224;-64
2022/01/23 01:13:06;;;;;;;12.37;7.87;;;;;;;2.98;100.00;98299.28;5069193;28;20169;-65
2022/01/23 01:32:05;;;;;;;12.00;7.53;;;;;;;3.10;100.00;98280.84;5061677;28;20228;-64
2022/01/23 01:34:45;;;;;;;8.93;7.43;;;;;;;3.17;100.00;98294.88;5056558;28;20189;-67
2022/01/23 01:37:12;;;;;;;10.80;6.50;;;;;;;3.11;100.00;98295.44;5057481;28;20600;-65
2022/01/23 01:39:38;;;;;;;12.40;7.47;;;;;;;2.98;100.00;98292.34;5054576;28;20280;-65
2022/01/23 01:42:04;;;;;;;13.50;6.30;;;;;;;2.95;100.00;98290.06;5053164;28;20541;-64
2022/01/23 01:44:30;;;;;;;9.57;6.83;;;;;;;3.08;100.00;98295.72;5053620;28;20190;-65
2022/01/23 01:46:56;;;;;;;10.37;6.33;;;;;;;3.17;100.00;98299.25;5072912;28;20184;-64
2022/01/23 01:49:28;;;;;;;8.77;6.23;;;;;;;3.24;100.00;98300.28;5072088;28;20201;-64
2022/01/23 01:51:56;;;;;;;9.57;6.03;;;;;;;3.10;100.00;98300.75;5061167;28;20178;-65
2022/01/23 01:54:24;;;;;;;7.77;5.90;;;;;;;3.19;100.00;98303.31;5052925;28;20694;-64
2022/01/23 01:56:52;;;;;;;8.93;6.90;;;;;;;3.19;100.00;98295.53;5037161;28;20541;-65
2022/01/23 02:09:59;;;;;;;11.37;6.67;;;;;;;3.09;100.00;98299.13;5062263;28;20201;-65
2022/01/23 02:13:12;;;;;;;8.10;6.00;;;;;;;3.26;100.00;98304.38;5053409;28;20189;-64
2022/01/23 02:55:33;;;;;;;14.13;9.07;;;;;;;2.76;100.00;98265.03;5075823;28;20181;-64
2022/01/23 02:58:01;;;;;;;10.50;7.73;;;;;;;3.06;100.00;98268.34;5073646;28;20227;-65
2022/01/23 03:00:34;;;;;;;12.30;8.20;;;;;;;2.99;100.00;98260.31;5056859;28;20194;-65
2022/01/23 03:03:06;;;;;;;11.63;8.67;;;;;;;2.93;100.00;98260.88;5074540;28;20177;-65
2022/01/23 03:08:19;;;;;;;14.10;9.17;;;;;;;3.16;100.00;98274.28;5066001;28;20533;-65
2022/01/23 03:10:57;;;;;;;13.73;9.07;;;;;;;3.04;100.00;98278.00;5072183;28;20205;-66
2022/01/23 03:24:43;;;;;;;16.13;10.50;;;;;;;2.88;100.00;98278.63;5067409;28;20648;-67
2022/01/23 03:32:35;;;;;;;13.10;9.30;;;;;;;3.00;100.00;98282.69;5060152;28;20181;-65
2022/01/23 03:35:01;;;;;;;14.63;10.43;;;;;;;3.02;100.00;98298.03;5060727;28;20205;-64
2022/01/23 03:37:26;;;;;;;15.77;9.33;;;;;;;3.08;100.00;98295.72;5059217;28;20197;-67
2022/01/23 03:39:52;;;;;;;16.67;10.07;;;;;;;3.17;100.00;98296.66;5063867;28;20248;-63
2022/01/23 03:42:17;;;;;;;13.47;9.10;;;;;;;2.93;100.00;98290.19;5074349;28;20177;-63
2022/01/23 03:44:55;;;;;;;12.70;9.17;;;;;;;3.12;100.00;98302.22;5074313;28;20186;-63
2022/01/23 03:47:32;;;;;;;15.10;9.97;;;;;;;3.05;100.00;98297.78;5072788;28;20178;-64
2022/01/23 03:49:57;;;;;;;15.43;9.50;;;;;;;2.82;100.00;98295.53;5056572;28;20250;-63
2022/01/23 03:52:24;;;;;;;14.77;10.23;;;;;;;2.83;100.00;98297.16;5044701;28;20273;-63
2022/01/23 03:54:49;;;;;;;12.73;9.53;;;;;;;2.85;100.00;98300.41;5054766;28;20647;-64
2022/01/23 03:57:15;;;;;;;17.47;10.30;;;;;;;2.81;100.00;98304.25;5057572;28;20269;-63
2022/01/23 03:59:40;;;;;;;13.97;9.77;;;;;;;2.77;100.00;98305.50;5067961;28;20548;-64
2022/01/23 04:02:06;;;;;;;17.87;10.10;;;;;;;2.71;100.00;98313.81;5054333;28;20186;-64
2022/01/23 04:07:20;;;;;;;18.37;10.97;;;;;;;2.81;100.00;98312.03;5072856;28;20197;-63
2022/01/23 04:09:46;;;;;;;18.13;10.77;;;;;;;2.71;100.00;98311.22;5060960;28;20200;-63
2022/01/23 04:14:54;;;;;;;17.20;10.90;;;;;;;2.67;100.00;98302.13;5058806;28;20188;-63
2022/01/23 04:33:45;;;;;;;15.60;10.30;;;;;;;2.89;100.00;98290.63;5058326;28;20188;-65
2022/01/23 05:00:35;;;;;;;16.23;11.40;;;;;;;2.93;100.00;98290.19;5054755;28;20193;-63
2022/01/23 05:03:56;;;;;;;18.17;11.97;;;;;;;3.06;100.00;98304.59;5058003;28;20181;-63
2022/01/23 05:06:06;;;;;;;17.10;11.07;;;;;;;2.90;100.00;98295.63;5053454;28;20194;-64
2022/01/23 05:08:34;;;;;;;18.37;11.60;;;;;;;2.79;100.00;98295.78;5060156;28;20189;-64
2022/01/23 05:11:01;;;;;;;16.10;10.93;;;;;;;2.81;100.00;98293.91;5072794;28;20656;-64
2022/01/23 05:13:28;;;;;;;16.07;11.07;;;;;;;2.84;100.00;98287.63;5040279;28;20186;-63
2022/01/23 05:15:54;;;;;;;17.33;10.63;;;;;;;2.73;100.00;98287.81;5053422;28;20182;-64
2022/01/23 05:18:20;;;;;;;13.97;9.93;;;;;;;2.78;100.00;98290.78;5057988;28;20188;-64
2022/01/23 05:20:47;;;;;;;16.27;10.47;;;;;;;2.75;100.00;98297.03;5067049;28;20181;-63
2022/01/23 05:23:12;;;;;;;18.37;11.93;;;;;;;2.93;100.00;98302.31;5056697;28;20181;-64
2022/01/23 05:25:39;;;;;;;16.23;10.90;;;;;;;3.04;100.00;98299.56;5058121;28;20194;-65
2022/01/23 05:28:07;;;;;;;20.53;12.60;;;;;;;2.95;100.00;98307.34;5056934;28;20637;-64
2022/01/23 05:30:33;;;;;;;20.00;12.93;;;;;;;2.93;100.00;98310.09;5057286;28;20718;-64
2022/01/23 05:33:00;;;;;;;18.03;12.40;;;;;;;2.88;100.00;98312.28;5057308;28;20343;-64
2022/01/23 05:35:28;;;;;;;20.83;13.20;;;;;;;3.07;100.00;98304.44;5073074;28;20250;-64
2022/01/23 05:37:53;;;;;;;20.90;12.37;;;;;;;2.85;100.00;98310.78;5067157;28;20213;-64
2022/01/23 05:40:21;;;;;;;18.00;12.80;;;;;;;2.80;100.00;98312.97;5061798;28;20257;-63
2022/01/23 05:42:46;;;;;;;22.53;12.33;;;;;;;2.83;100.00;98311.88;5064772;28;20182;-63
2022/01/23 05:45:12;;;;;;;20.73;12.00;;;;;;;3.08;100.00;98302.66;5052966;28;20186;-64
2022/01/23 05:47:37;;;;;;;18.83;12.27;;;;;;;2.91;100.00;98304.22;5071396;28;20188;-63
2022/01/23 05:50:04;;;;;;;21.83;12.90;;;;;;;2.77;100.00;98310.69;5072650;28;20560;-64
2022/01/23 05:52:31;;;;;;;21.43;13.10;;;;;;;2.79;100.00;98313.09;5062957;28;20183;-63
2022/01/23 05:54:57;;;;;;;20.63;12.20;;;;;;;2.79;100.00;98307.94;5058640;28;20552;-64
2022/01/23 05:57:22;;;;;;;17.63;12.07;;;;;;;2.76;100.00;98315.97;5059549;28;20650;-64
2022/01/23 05:59:48;;;;;;;17.87;12.10;;;;;;;2.92;100.00;98311.84;5078935;28;20207;-63
2022/01/23 06:02:13;;;;;;;18.00;12.20;;;;;;;3.15;100.00;98316.69;5070231;28;20193;-63
2022/01/23 06:04:38;;;;;;;20.17;13.10;;;;;;;2.87;100.00;98318.41;5052563;28;20280;-67
2022/01/23 06:07:04;;;;;;;18.77;11.87;;;;;;;3.12;100.00;98319.56;5064348;28;20635;-64
2022/01/23 06:09:29;;;;;;;22.03;14.00;;;;;;;2.91;100.00;98324.94;5059807;28;20604;-64
2022/01/23 06:11:55;;;;;;;20.00;12.17;;;;;;;2.93;100.00;98331.63;5078564;28;20242;-63
2022/01/23 06:14:21;;;;;;;19.10;12.73;;;;;;;3.04;100.00;98338.41;5079157;28;20230;-64
2022/01/23 06:16:46;;;;;;;21.13;13.07;;;;;;;2.86;100.00;98334.91;5067213;28;20186;-64
2022/01/23 06:19:12;;;;;;;21.80;13.07;;;;;;;3.04;100.00;98337.59;5059615;28;20572;-63
2022/01/23 06:21:37;;;;;;;23.23;12.97;;;;;;;3.31;100.00;98338.44;5063714;28;20189;-64
2022/01/23 06:24:08;;;;;;;21.43;12.33;;;;;;;3.31;100.00;98338.44;5044976;28;20177;-63
2022/01/23 06:26:49;;;;;;;21.33;13.17;;;;;;;3.06;100.00;98339.09;5072126;28;20174;-64
2022/01/23 06:29:17;;;;;;;23.20;12.77;;;;;;;2.96;100.00;98345.22;5078617;28;20708;-63
2022/01/23 06:31:46;;;;;;;20.43;12.80;;;;;;;2.96;100.00;98340.03;5077394;28;20313;-63
2022/01/23 06:34:12;;;;;;;20.77;13.10;;;;;;;2.95;100.00;98349.63;5067997;28;20196;-64
2022/01/23 06:36:38;;;;;;;20.17;12.70;;;;;;;3.13;100.00;98345.31;5058931;28;20545;-63
2022/01/23 06:39:12;;;;;;;23.60;13.83;;;;;;;3.09;100.00;98343.16;5076677;28;20221;-64
2022/01/23 06:41:38;;;;;;;22.60;14.33;;;;;;;3.04;100.00;98347.94;5079063;28;20177;-64
2022/01/23 06:44:04;;;;;;;24.03;14.33;;;;;;;3.10;100.00;98344.78;5076784;28;20181;-64
2022/01/23 06:46:31;;;;;;;18.40;12.60;;;;;;;3.34;100.00;98338.13;5060235;28;20190;-63
2022/01/23 06:48:57;;;;;;;21.93;12.43;;;;;;;3.06;100.00;98357.22;5059079;28;20189;-64
2022/01/23 06:51:22;;;;;;;20.27;13.17;;;;;;;3.09;100.00;98356.91;5070473;28;20280;-64
2022/01/23 06:53:47;;;;;;;19.67;12.97;;;;;;;2.95;100.00;98352.19;5070621;28;20189;-64
2022/01/23 06:56:13;;;;;;;19.07;12.80;;;;;;;3.17;100.00;98351.88;5061877;28;20222;-64
2022/01/23 06:58:38;;;;;;;21.47;12.33;;;;;;;3.07;100.00;98363.19;5078551;28;20180;-64
2022/01/23 07:01:07;;;;;;;19.77;12.30;;;;;;;3.06;100.00;98366.75;5077330;28;20215;-63
2022/01/23 07:03:33;;;;;;;22.77;13.83;;;;;;;3.08;100.00;98372.59;5046943;28;20592;-64
2022/01/23 07:05:59;;;;;;;19.57;13.00;;;;;;;3.07;100.00;98370.97;5055519;28;20182;-64
2022/01/23 07:08:24;;;;;;;19.37;12.43;;;;;;;3.00;100.00;98372.50;5060139;28;20216;-64
2022/01/23 07:10:50;;;;;;;19.60;12.33;;;;;;;2.84;100.00;98375.66;5075091;28;20213;-64
2022/01/23 07:13:15;;;;;;;20.67;12.57;;;;;;;2.95;100.00;98377.28;5065605;28;20228;-64
2022/01/23 07:15:40;;;;;;;20.83;12.63;;;;;;;2.88;100.00;98377.00;5060407;28;21815;-64
2022/01/23 07:18:06;;;;;;;21.33;12.83;;;;;;;2.95;100.00;98377.28;5059245;28;20200;-64
2022/01/23 07:20:31;;;;;;;19.57;13.10;;;;;;;2.84;100.00;98378.25;5059401;28;20190;-65
2022/01/23 07:22:56;;;;;;;24.57;13.10;;;;;;;2.90;100.00;98391.44;5059537;28;20314;-64
2022/01/23 07:25:22;;;;;;;22.23;13.47;;;;;;;2.92;100.00;98388.72;5060215;28;20190;-64
2022/01/23 07:27:51;;;;;;;19.07;12.23;;;;;;;3.00;100.00;98399.22;5071670;28;20692;-64
2022/01/23 07:32:48;;;;;;;20.43;12.83;;;;;;;3.46;100.00;98388.00;5069330;28;20200;-63
2022/01/23 07:35:13;;;;;;;19.73;12.37;;;;;;;3.36;100.00;98387.25;5054709;28;20595;-64
2022/01/23 07:37:39;;;;;;;19.30;12.57;;;;;;;3.40;100.00;98396.34;5054911;28;20186;-63
2022/01/23 07:40:05;;;;;;;19.87;11.77;;;;;;;3.27;100.00;98388.09;5069852;28;20229;-63
2022/01/23 07:42:30;;;;;;;19.77;12.03;;;;;;;3.10;100.00;98399.19;5074684;28;20185;-64
2022/01/23 07:44:56;;;;;;;19.70;12.73;;;;;;;3.09;100.00;98397.53;5074694;28;20198;-63
2022/01/23 07:47:22;;;;;;;18.47;11.70;;;;;;;2.91;100.00;98400.84;5074310;28;20646;-65
2022/01/23 07:49:49;;;;;;;19.40;12.57;;;;;;;2.90;100.00;98396.63;5060649;28;20697;-66
2022/01/23 07:52:16;;;;;;;19.23;12.63;;;;;;;3.01;100.00;98403.41;5070877;28;20188;-65
2022/01/23 07:54:41;;;;;;;23.57;13.57;;;;;;;3.40;100.00;98409.31;5054847;28;20186;-66
2022/01/23 07:57:07;;;;;;;20.63;12.40;;;;;;;3.24;100.00;98409.91;5055050;28;20202;-66
2022/01/23 07:59:34;;;;;;;18.93;11.60;;;;;;;3.38;100.00;98418.22;5065554;28;20193;-66
2022/01/23 08:02:00;;;;;;;20.90;12.43;;;;;;;3.60;100.00;98420.44;5072576;28;20192;-66
2022/01/23 08:04:26;;;;;;;19.70;12.10;;;;;;;3.43;100.00;98421.19;5073567;28;20189;-67
2022/01/23 08:07:07;;;;;;;19.27;11.57;;;;;;;3.46;100.00;98416.53;5074281;28;20240;-65
2022/01/23 08:09:32;;;;;;;18.27;11.63;;;;;;;3.32;100.00;98414.41;5073993;28;20232;-64
2022/01/23 08:11:57;;;;;;;18.40;11.20;;;;;;;3.45;100.00;98422.69;5060330;28;20217;-65
2022/01/23 08:14:23;;;;;;;17.03;10.53;;;;;;;3.41;100.00;98426.50;5071346;28;20629;-65
2022/01/23 08:16:48;;;;;;;18.00;11.90;;;;;;;3.33;100.00;98422.03;5052512;28;20247;-65
2022/01/23 08:19:13;;;;;;;19.30;12.47;;;;;;;3.30;100.00;98424.06;5053868;28;20181;-65
2022/01/23 08:21:39;;;;;;;18.30;11.53;;;;;;;3.12;100.00;98418.78;5054329;28;20205;-65
2022/01/23 08:24:05;;;;;;;19.90;12.77;;;;;;;3.41;100.00;98430.88;5054306;28;20212;-65
2022/01/23 08:26:30;;;;;;;19.33;11.93;;;;;;;3.54;100.00;98428.78;5036236;28;20193;-65
2022/01/23 08:28:56;;;;;;;19.53;12.50;;;;;;;3.84;100.00;98432.91;5073545;28;20177;-64
2022/01/23 08:31:21;;;;;;;17.17;11.80;;;;;;;3.78;100.00;98438.66;5073193;28;20209;-66
2022/01/23 08:33:46;;;;;;;24.57;12.53;;;;;;;3.72;100.00;98435.69;5073593;28;20185;-66
2022/01/23 08:36:12;;;;;;;17.93;12.77;;;;;;;3.73;100.00;98428.72;5061077;28;20666;-65
2022/01/23 08:38:37;;;;;;;20.33;13.23;;;;;;;3.70;100.00;98434.19;5053560;28;20183;-65
2022/01/23 08:43:37;;;;;;;18.17;11.97;;;;;;;3.84;100.00;98445.88;5061919;28;20211;-65
2022/01/23 08:46:04;;;;;;;15.40;11.03;;;;;;;3.92;100.00;98448.56;5073351;28;20273;-66
2022/01/23 08:48:30;;;;;;;22.13;12.50;;;;;;;3.87;100.00;98450.75;5057893;28;20650;-65
2022/01/23 08:50:55;;;;;;;22.73;12.60;;;;;;;4.01;100.00;98439.94;5053573;28;20241;-65
2022/01/23 08:53:21;;;;;;;20.23;12.47;;;;;;;4.14;100.00;98436.03;5066337;28;20185;-65
2022/01/23 08:55:49;;;;;;;17.07;12.30;;;;;;;4.11;100.00;98443.28;5073069;28;20595;-65
2022/01/23 08:58:16;;;;;;;18.03;11.20;;;;;;;4.01;100.00;98432.16;5051457;28;20642;-66
2022/01/23 09:00:42;;;;;;;18.60;12.50;;;;;;;4.34;98.69;98433.31;5055323;28;20193;-67
2022/01/23 09:03:08;;;;;;;17.70;11.90;;;;;;;4.53;97.95;98430.56;5072937;28;20230;-66
2022/01/23 09:05:33;;;;;;;18.40;12.17;;;;;;;4.68;96.54;98429.09;5073227;28;20207;-66
2022/01/23 09:07:59;;;;;;;18.40;11.60;;;;;;;4.34;97.93;98428.13;5036091;28;20222;-67
2022/01/23 09:10:26;;;;;;;17.27;11.90;;;;;;;4.36;98.63;98421.81;5068323;28;20568;-66
2022/01/23 09:15:31;;;;;;;19.30;12.27;;;;;;;4.91;95.07;98422.47;5053398;28;20190;-66
2022/01/23 09:17:56;;;;;;;19.70;12.63;;;;;;;4.73;95.96;98423.47;5071280;28;20185;-66
2022/01/23 09:20:22;;;;;;;20.23;12.27;;;;;;;4.55;97.16;98423.47;5067115;28;20394;-69
2022/01/23 09:22:47;;;;;;;15.77;11.77;;;;;;;4.72;96.12;98424.44;5053008;28;20186;-66
2022/01/23 09:25:12;;;;;;;19.90;12.90;;;;;;;4.72;97.40;98419.25;5053198;28;20655;-66
2022/01/23 09:27:39;;;;;;;21.53;12.53;;;;;;;4.80;97.10;98422.69;5053180;28;20197;-67
2022/01/23 09:30:16;;;;;;;19.27;12.63;;;;;;;5.03;94.63;98425.66;5049518;28;20217;-66
2022/01/23 09:32:43;;;;;;;19.83;13.30;;;;;;;4.90;96.68;98428.63;5065016;28;20543;-70
2022/01/23 09:35:09;;;;;;;23.97;13.40;;;;;;;5.08;95.75;98430.38;5053077;28;20225;-66
2022/01/23 09:37:34;;;;;;;18.93;12.90;;;;;;;4.97;93.65;98427.06;5052892;28;20247;-66
2022/01/23 09:40:00;;;;;;;19.50;13.07;;;;;;;5.10;93.69;98424.09;5071377;28;20693;-66
2022/01/23 09:42:35;;;;;;;21.97;13.57;;;;;;;5.17;93.87;98424.31;5067591;28;20212;-67
2022/01/23 09:45:09;;;;;;;17.93;12.57;;;;;;;5.15;92.24;98423.63;5057325;28;20172;-67
2022/01/23 09:47:36;;;;;;;19.33;12.70;;;;;;;4.85;94.16;98423.06;5057022;28;20174;-70
2022/01/23 09:50:03;;;;;;;19.43;12.90;;;;;;;4.60;94.69;98429.84;5056256;28;20239;-70
2022/01/23 09:52:32;;;;;;;20.07;12.33;;;;;;;4.50;96.02;98429.09;5065922;28;20185;-67
2022/01/23 09:55:06;;;;;;;17.17;12.10;;;;;;;4.54;95.67;98427.03;5072226;28;20181;-67
2022/01/23 09:57:32;;;;;;;14.87;10.50;;;;;;;4.31;97.33;98434.41;5060335;28;20197;-66
2022/01/23 09:59:59;;;;;;;10.90;8.37;;;;;;;4.16;92.15;98426.31;5054870;28;20219;-67
2022/01/23 10:02:25;;;;;;;15.80;10.17;;;;;;;4.38;94.76;98425.09;5072005;28;20173;-66
2022/01/23 10:04:52;;;;;;;15.67;11.20;;;;;;;4.50;95.88;98423.91;5072230;28;20190;-66
2022/01/23 10:07:19;;;;;;;12.73;8.53;;;;;;;4.35;93.32;98425.38;5038819;28;20182;-66
2022/01/23 10:09:51;;;;;;;11.20;8.00;;;;;;;4.24;93.53;98419.56;5058817;28;20201;-66
2022/01/23 10:12:17;;;;;;;13.77;9.53;;;;;;;4.54;93.36;98422.66;5051924;28;20204;-67
2022/01/23 10:14:43;;;;;;;16.83;10.73;;;;;;;4.86;93.27;98423.88;5052270;28;20190;-67
2022/01/23 10:17:09;;;;;;;15.97;11.03;;;;;;;4.81;93.86;98426.13;5052644;28;20272;-66
2022/01/23 10:19:34;;;;;;;13.30;9.53;;;;;;;4.83;92.64;98426.78;5053462;28;20635;-69
2022/01/23 10:22:02;;;;;;;15.67;10.43;;;;;;;5.12;92.08;98424.75;5071321;28;20187;-66
2022/01/23 10:24:28;;;;;;;12.17;8.83;;;;;;;5.12;91.15;98424.75;5053822;28;20199;-66
2022/01/23 10:26:56;;;;;;;14.13;8.90;;;;;;;5.10;90.76;98425.88;5053922;28;20181;-67
2022/01/23 10:29:29;;;;;;;11.87;8.70;;;;;;;5.09;89.07;98432.84;5050861;28;20288;-66
2022/01/23 10:32:14;;;;;;;13.30;9.90;;;;;;;4.94;90.27;98435.19;5044778;28;20522;-65
2022/01/23 10:34:50;;;;;;;15.03;10.37;;;;;;;4.61;91.99;98441.06;5053675;28;20186;-66
2022/01/23 10:37:24;;;;;;;12.40;8.83;;;;;;;4.96;91.32;98435.81;5069792;28;20181;-66
2022/01/23 10:39:50;;;;;;;10.97;8.67;;;;;;;4.97;90.35;98429.66;5071602;28;20578;-66
2022/01/23 10:42:51;;;;;;;19.33;12.57;;;;;;;5.20;90.42;98423.97;5075021;28;20264;-67
2022/01/23 10:50:52;;;;;;;12.77;8.10;;;;;;;4.83;89.50;98421.59;5075762;28;20209;-66
2022/01/23 10:53:17;;;;;;;12.50;8.73;;;;;;;4.90;90.62;98412.25;5067205;28;20610;-64
2022/01/23 10:55:44;;;;;;;13.77;9.40;;;;;;;5.10;89.07;98413.69;5024008;28;20649;-64
2022/01/23 10:58:21;;;;;;;13.63;9.50;;;;;;;5.16;89.11;98413.09;5042195;28;20185;-64
2022/01/23 11:00:47;;;;;;;14.27;9.93;;;;;;;5.22;88.47;98414.25;5055823;28;20268;-66
2022/01/23 11:03:15;;;;;;;14.00;9.90;;;;;;;5.35;88.04;98417.28;5055645;28;20184;-65
2022/01/23 11:05:41;;;;;;;13.77;10.10;;;;;;;5.08;86.56;98415.63;5063939;28;20193;-66
2022/01/23 11:08:30;;;;;;;13.50;9.40;;;;;;;5.12;88.30;98416.97;5074886;28;20184;-66
2022/01/23 11:10:59;;;;;;;17.80;9.87;;;;;;;5.51;87.36;98412.16;5057183;28;20677;-65
2022/01/23 11:19:19;;;;;;;17.53;10.30;;;;;;;5.10;87.90;98410.28;5065508;28;20262;-64
2022/01/23 11:21:44;;;;;;;14.93;10.30;;;;;;;5.16;87.17;98401.88;5063013;28;20213;-64
2022/01/23 11:24:12;;;;;;;13.73;10.57;;;;;;;5.16;89.46;98404.47;5050997;28;20196;-64
2022/01/23 11:26:39;;;;;;;17.37;10.93;;;;;;;5.46;87.70;98404.03;5074159;28;20552;-64
2022/01/23 11:29:09;;;;;;;17.30;10.17;;;;;;;5.13;87.02;98407.34;5074573;28;20185;-64
2022/01/23 11:31:36;;;;;;;17.80;10.90;;;;;;;4.78;90.34;98403.88;5072993;28;20209;-64
2022/01/23 11:34:04;;;;;;;18.73;11.60;;;;;;;4.96;90.11;98403.81;5073828;28;20860;-64
2022/01/23 11:36:30;;;;;;;15.60;10.57;;;;;;;4.85;88.65;98407.47;5074337;28;20192;-64
2022/01/23 11:39:02;;;;;;;18.13;10.97;;;;;;;4.92;88.37;98400.72;5064561;28;20534;-64
2022/01/23 11:55:46;;;;;;;12.60;8.30;;;;;;;5.13;87.44;98381.38;5067676;28;20227;-64
2022/01/23 11:58:35;;;;;;;17.57;9.97;;;;;;;5.14;87.46;98378.63;5019654;28;20189;-64
2022/01/23 12:01:27;;;;;;;13.53;9.70;;;;;;;5.25;87.14;98373.16;5062970;28;20189;-64
2022/01/23 12:04:08;;;;;;;13.77;9.67;;;;;;;5.01;87.29;98380.84;5049894;28;20194;-64
2022/01/23 12:06:36;;;;;;;15.00;9.43;;;;;;;5.07;86.98;98380.19;5054594;28;20232;-64
2022/01/23 12:09:17;;;;;;;12.33;8.33;;;;;;;4.90;86.98;98378.47;5071399;28;20239;-70
2022/01/23 12:12:07;;;;;;;14.87;8.73;;;;;;;5.21;87.00;98376.25;5057061;28;20217;-65
2022/01/23 12:17:06;;;;;;;12.67;8.90;;;;;;;5.76;86.24;98372.28;5073214;28;20238;-63
2022/01/23 12:19:39;;;;;;;13.57;9.10;;;;;;;5.74;84.06;98373.44;5059903;28;20170;-65
2022/01/23 12:22:33;;;;;;;13.73;8.87;;;;;;;5.86;83.37;98372.97;5037566;28;20593;-65
2022/01/23 12:25:07;;;;;;;12.50;8.83;;;;;;;5.74;82.75;98371.63;5073015;28;20208;-64
2022/01/23 12:27:33;;;;;;;11.37;8.67;;;;;;;5.76;83.28;98368.88;5072485;28;20174;-65
2022/01/23 12:30:33;;;;;;;12.37;8.77;;;;;;;5.84;83.17;98363.72;5073658;28;20228;-64
2022/01/23 12:33:10;;;;;;;14.37;9.13;;;;;;;6.07;82.58;98353.56;5073618;28;20633;-64
2022/01/23 12:35:41;;;;;;;12.57;8.40;;;;;;;5.79;83.02;98358.16;5071363;28;20608;-64
2022/01/23 12:38:10;;;;;;;14.77;9.13;;;;;;;5.78;82.85;98354.75;5047367;28;20259;-64
2022/01/23 12:40:45;;;;;;;12.80;8.67;;;;;;;5.41;83.22;98347.25;5073004;28;20229;-64
2022/01/23 12:43:18;;;;;;;12.00;8.13;;;;;;;5.31;84.78;98343.97;5072925;28;20180;-65
2022/01/23 12:45:57;;;;;;;15.53;9.17;;;;;;;5.53;84.32;98340.00;5059512;28;20221;-64
2022/01/23 12:48:25;;;;;;;11.40;8.07;;;;;;;5.52;84.09;98348.75;5061806;28;20181;-64
2022/01/23 12:50:56;;;;;;;9.77;6.60;;;;;;;5.54;79.19;98349.44;5072964;28;20545;-64
2022/01/23 12:53:22;;;;;;;40.40;21.13;;;;;;;5.40;79.02;98345.66;5062881;28;20709;-64
2022/01/23 12:56:08;;;;;;;52.73;29.03;;;;;;;5.64;78.36;98354.50;5069294;28;20656;-64
2022/01/23 12:58:34;;;;;;;47.40;33.17;;;;;;;5.51;79.53;98352.38;5072806;28;20184;-64
2022/01/23 13:01:26;;;;;;;17.47;12.77;;;;;;;5.44;80.16;98349.56;5072547;28;20185;-64
2022/01/23 13:03:56;;;;;;;12.90;9.33;;;;;;;4.97;81.77;98359.53;5067837;28;20197;-64
2022/01/23 13:06:49;;;;;;;14.00;9.47;;;;;;;4.96;82.58;98357.06;5071779;28;20630;-65
2022/01/23 13:31:50;;;;;;;9.70;7.87;;;;;;;5.34;78.55;98333.28;5051897;28;20205;-65
2022/01/23 13:34:30;;;;;;;10.87;7.67;;;;;;;5.06;80.09;98334.41;5052792;28;20174;-64
2022/01/23 13:37:04;;;;;;;10.83;6.73;;;;;;;5.12;75.57;98326.00;5050451;28;20204;-64
2022/01/23 13:39:45;;;;;;;8.30;4.90;;;;;;;4.95;73.80;98329.47;5072576;28;20323;-65
2022/01/23 13:53:24;;;;;;;4.67;3.87;;;;;;;5.08;72.70;98329.84;5067730;28;20174;-64
2022/01/23 13:58:37;;;;;;;5.53;4.80;;;;;;;5.30;72.38;98321.53;5051984;28;20263;-64
2022/01/23 14:01:29;;;;;;;9.13;6.37;;;;;;;5.30;73.15;98316.34;5054071;28;20340;-66
2022/01/23 14:03:52;;;;;;;5.80;4.33;;;;;;;5.21;72.03;98319.88;5071789;28;20189;-64
2022/01/23 14:06:17;;;;;;;6.97;5.03;;;;;;;5.23;71.55;98315.34;5072284;28;20208;-64
2022/01/23 14:09:00;;;;;;;5.93;4.63;;;;;;;5.11;72.29;98316.56;5055457;28;20185;-64
2022/01/23 14:11:26;;;;;;;6.47;4.90;;;;;;;5.08;73.54;98314.28;5057831;28;20700;-64
2022/01/23 14:13:52;;;;;;;5.53;4.77;;;;;;;5.10;73.41;98308.94;5063874;28;20499;-65
2022/01/23 14:16:26;;;;;;;5.97;4.10;;;;;;;4.96;72.10;98311.13;5056730;28;20239;-64
2022/01/23 14:18:51;;;;;;;4.63;4.00;;;;;;;5.05;72.04;98305.97;5056300;28;20297;-68
2022/01/23 14:21:18;;;;;;;4.57;4.00;;;;;;;5.13;71.16;98306.81;5059823;28;20684;-64
2022/01/23 14:23:53;;;;;;;4.07;3.37;;;;;;;5.01;70.93;98302.88;5076184;28;20181;-64
2022/01/23 14:26:18;;;;;;;4.73;3.30;;;;;;;5.02;71.25;98302.72;5076329;28;20243;-64
2022/01/23 14:28:50;;;;;;;3.53;2.87;;;;;;;5.09;70.37;98307.28;5071394;28;20313;-64
2022/01/23 14:31:22;;;;;;;3.93;3.00;;;;;;;5.17;71.38;98304.75;5056332;28;20277;-64
2022/01/23 14:33:53;;;;;;;3.40;3.00;;;;;;;5.07;70.64;98307.44;5056140;28;20193;-64
2022/01/23 14:36:22;;;;;;;3.30;2.97;;;;;;;4.97;71.11;98306.75;5056411;28;20170;-64
2022/01/23 14:39:06;;;;;;;4.07;3.17;;;;;;;5.10;70.88;98309.75;5060325;28;20351;-64
2022/01/23 14:41:37;;;;;;;4.90;3.53;;;;;;;5.02;70.75;98307.91;5075216;28;20196;-64
2022/01/23 14:44:14;;;;;;;3.80;3.50;;;;;;;5.29;70.02;98313.91;5044254;28;20273;-64
2022/01/23 14:46:40;;;;;;;3.10;2.80;;;;;;;5.11;69.48;98311.38;5071840;28;20185;-64
2022/01/23 14:49:10;;;;;;;6.30;4.00;;;;;;;4.96;70.65;98311.13;5061431;28;20272;-64
2022/01/23 14:51:38;;;;;;;5.47;4.30;;;;;;;4.97;70.60;98317.94;5075486;28;20619;-64
2022/01/23 14:54:04;;;;;;;5.30;4.33;;;;;;;5.08;70.76;98316.88;5075383;28;20218;-64
2022/01/23 14:56:31;;;;;;;4.80;4.30;;;;;;;4.56;72.26;98311.69;5056111;28;20181;-64
2022/01/23 14:58:57;;;;;;;5.40;4.27;;;;;;;4.45;72.86;98322.31;5060080;28;20189;-64
2022/01/23 15:01:22;;;;;;;4.87;4.03;;;;;;;4.43;72.75;98324.22;5075401;28;20187;-63
2022/01/23 15:03:52;;;;;;;5.23;4.73;;;;;;;4.46;73.86;98321.31;5074723;28;20181;-64
2022/01/23 15:06:18;;;;;;;6.60;4.63;;;;;;;4.60;73.49;98312.19;5075141;28;20649;-64
2022/01/23 15:08:47;;;;;;;6.43;4.30;;;;;;;4.56;72.52;98321.25;5055908;28;20186;-64